createdAt,value
2022-12-23T00:00:22.524Z,9.18
2022-12-23T00:03:07.290Z,9.43
2022-12-23T00:05:52.571Z,9.13
2022-12-23T00:08:37.493Z,8.70
2022-12-23T00:11:22.339Z,9.04
2022-12-23T00:14:07.197Z,9.42
2022-12-23T00:16:52.091Z,9.30
2022-12-23T00:19:37.480Z,9.08
2022-12-23T00:22:22.307Z,9.49
2022-12-23T00:25:07.107Z,9.18
2022-12-23T00:27:52.028Z,9.40
2022-12-23T00:30:36.911Z,9.19
2022-12-23T00:33:21.739Z,9.38
2022-12-23T00:36:06.603Z,9.54
2022-12-23T00:38:51.612Z,9.40
2022-12-23T00:41:36.536Z,9.73
2022-12-23T00:44:21.514Z,9.48
2022-12-23T00:47:06.336Z,9.70
2022-12-23T00:49:51.329Z,9.02
2022-12-23T00:52:36.327Z,9.44
2022-12-23T00:55:21.197Z,9.80
2022-12-23T00:58:06.157Z,9.56
2022-12-23T01:00:50.962Z,9.30
2022-12-23T01:03:36.109Z,9.51
2022-12-23T01:06:21.312Z,9.25
2022-12-23T01:09:06.176Z,9.52
2022-12-23T01:11:51.077Z,9.68
2022-12-23T01:14:35.961Z,9.71
2022-12-23T01:17:21.118Z,9.52
2022-12-23T01:20:06.234Z,9.44
2022-12-23T01:22:51.062Z,9.52
2022-12-23T01:25:35.980Z,9.54
2022-12-23T01:28:21.036Z,9.73
2022-12-23T01:31:05.980Z,9.48
2022-12-23T01:33:50.980Z,9.65
2022-12-23T01:36:35.839Z,9.42
2022-12-23T01:39:20.764Z,9.32
2022-12-23T01:42:05.621Z,9.43
2022-12-23T01:44:50.417Z,9.38
2022-12-23T01:47:35.423Z,9.44
2022-12-23T01:50:20.231Z,9.22
2022-12-23T01:53:08.118Z,9.46
2022-12-23T01:55:53.532Z,9.55
2022-12-23T01:58:38.524Z,9.53
2022-12-23T02:01:23.575Z,9.47
2022-12-23T02:04:08.807Z,9.23
2022-12-23T02:06:53.739Z,9.39
2022-12-23T02:09:38.561Z,8.71
2022-12-23T02:12:23.440Z,9.03
2022-12-23T02:15:08.313Z,9.02
2022-12-23T02:17:53.288Z,8.89
2022-12-23T02:20:38.141Z,9.37
2022-12-23T02:23:23.006Z,8.43
2022-12-23T02:26:07.894Z,8.56
2022-12-23T02:28:52.655Z,7.86
2022-12-23T02:31:37.452Z,8.89
2022-12-23T02:34:22.244Z,8.39
2022-12-23T02:37:07.185Z,8.51
2022-12-23T02:39:52.186Z,8.34
2022-12-23T02:42:37.072Z,8.46
2022-12-23T02:45:21.841Z,8.84
2022-12-23T02:48:06.821Z,8.97
2022-12-23T02:50:51.713Z,9.12
2022-12-23T02:53:36.538Z,9.50
2022-12-23T02:56:21.463Z,9.53
2022-12-23T02:59:06.308Z,9.76
2022-12-23T03:01:51.304Z,9.04
2022-12-23T03:04:36.462Z,9.69
2022-12-23T03:07:21.543Z,9.96
2022-12-23T03:10:06.381Z,9.47
2022-12-23T03:12:51.421Z,9.73
2022-12-23T03:15:36.370Z,9.56
2022-12-23T03:18:21.672Z,9.33
2022-12-23T03:21:06.612Z,9.53
2022-12-23T03:23:55.567Z,9.66
2022-12-23T03:26:40.872Z,9.74
2022-12-23T03:29:25.627Z,9.80
2022-12-23T03:32:10.483Z,10.04
2022-12-23T03:34:55.534Z,10.00
2022-12-23T03:37:40.504Z,9.85
2022-12-23T03:40:25.501Z,9.74
2022-12-23T03:43:10.446Z,9.90
2022-12-23T03:45:55.501Z,9.71
2022-12-23T03:48:40.207Z,9.78
2022-12-23T03:51:25.061Z,10.13
2022-12-23T03:54:10.000Z,9.85
2022-12-23T03:56:54.931Z,10.21
2022-12-23T03:59:39.973Z,9.84
2022-12-23T04:02:24.790Z,9.74
2022-12-23T04:05:10.128Z,9.71
2022-12-23T04:07:54.969Z,10.17
2022-12-23T04:10:39.779Z,10.08
2022-12-23T04:13:24.774Z,9.94
2022-12-23T04:16:09.649Z,10.01
2022-12-23T04:18:55.101Z,9.79
2022-12-23T04:21:39.899Z,10.14
2022-12-23T04:24:24.904Z,10.07
2022-12-23T04:27:09.705Z,9.93
2022-12-23T04:29:54.748Z,10.11
2022-12-23T04:32:39.802Z,10.34
2022-12-23T04:35:24.620Z,10.24
2022-12-23T04:38:09.523Z,10.36
2022-12-23T04:40:54.399Z,10.08
2022-12-23T04:43:39.418Z,10.13
2022-12-23T04:46:24.293Z,10.09
2022-12-23T04:49:09.159Z,10.16
2022-12-23T04:51:54.173Z,10.13
2022-12-23T04:54:45.450Z,10.31
2022-12-23T04:57:31.212Z,10.20
2022-12-23T05:00:16.084Z,10.21
2022-12-23T05:03:01.128Z,10.03
2022-12-23T05:05:46.468Z,10.25
2022-12-23T05:08:31.304Z,9.63
2022-12-23T05:11:16.188Z,10.00
2022-12-23T05:14:00.962Z,9.70
2022-12-23T05:16:45.869Z,10.00
2022-12-23T05:19:30.620Z,9.94
2022-12-23T05:22:15.610Z,9.87
2022-12-23T05:25:00.669Z,10.22
2022-12-23T05:27:45.458Z,10.20
2022-12-23T05:30:30.402Z,9.86
2022-12-23T05:33:15.239Z,9.84
2022-12-23T05:36:00.207Z,9.91
2022-12-23T05:38:45.103Z,10.13
2022-12-23T05:41:29.983Z,10.25
2022-12-23T05:44:14.821Z,10.14
2022-12-23T05:46:59.715Z,10.31
2022-12-23T05:49:44.557Z,10.13
2022-12-23T05:52:29.532Z,10.24
2022-12-23T05:55:14.475Z,10.14
2022-12-23T05:57:59.287Z,9.98
2022-12-23T06:00:44.310Z,10.01
2022-12-23T06:03:29.277Z,9.87
2022-12-23T06:06:14.635Z,10.04
2022-12-23T06:09:00.111Z,10.04
2022-12-23T06:11:45.282Z,10.29
2022-12-23T06:14:30.331Z,10.31
2022-12-23T06:17:15.198Z,10.12
2022-12-23T06:19:59.929Z,9.83
2022-12-23T06:22:44.763Z,10.21
2022-12-23T06:25:29.788Z,9.63
2022-12-23T06:28:14.659Z,9.80
2022-12-23T06:30:59.522Z,9.74
2022-12-23T06:33:44.418Z,9.96
2022-12-23T06:36:29.397Z,9.82
2022-12-23T06:39:14.378Z,9.96
2022-12-23T06:41:59.254Z,9.96
2022-12-23T06:44:44.126Z,9.40
2022-12-23T06:47:29.010Z,9.26
2022-12-23T06:50:13.859Z,9.18
2022-12-23T06:52:58.692Z,9.00
2022-12-23T06:55:43.628Z,9.26
2022-12-23T06:58:28.684Z,9.44
2022-12-23T07:01:13.635Z,9.37
2022-12-23T07:03:58.531Z,9.47
2022-12-23T07:06:43.337Z,9.49
2022-12-23T07:09:28.217Z,9.35
2022-12-23T07:12:12.950Z,9.72
2022-12-23T07:14:57.851Z,9.53
2022-12-23T07:17:42.746Z,9.77
2022-12-23T07:20:27.532Z,9.55
2022-12-23T07:23:12.370Z,9.43
2022-12-23T07:25:57.244Z,9.71
2022-12-23T07:28:42.217Z,9.70
2022-12-23T07:31:27.081Z,9.66
2022-12-23T07:34:12.047Z,9.45
2022-12-23T07:36:56.862Z,9.65
2022-12-23T07:39:41.815Z,9.70
2022-12-23T07:42:44.727Z,9.58
2022-12-23T07:45:30.849Z,9.67
2022-12-23T07:48:16.139Z,9.48
2022-12-23T07:51:00.880Z,10.13
2022-12-23T07:53:45.820Z,10.03
2022-12-23T07:56:30.559Z,9.77
2022-12-23T07:59:15.549Z,9.83
2022-12-23T08:02:00.446Z,9.72
2022-12-23T08:04:46.556Z,10.00
2022-12-23T08:07:32.004Z,10.07
2022-12-23T08:10:16.896Z,10.79
2022-12-23T08:13:01.912Z,10.38
2022-12-23T08:15:46.686Z,10.35
2022-12-23T08:18:31.663Z,10.56
2022-12-23T08:21:16.511Z,10.16
2022-12-23T08:24:01.291Z,10.34
2022-12-23T08:26:46.198Z,10.84
2022-12-23T08:29:35.915Z,10.64
2022-12-23T08:32:21.505Z,10.24
2022-12-23T08:35:06.553Z,10.74
2022-12-23T08:37:51.429Z,10.60
2022-12-23T08:40:36.585Z,10.70
2022-12-23T08:43:22.503Z,10.96
2022-12-23T08:46:07.546Z,10.92
2022-12-23T08:48:52.784Z,10.79
2022-12-23T08:51:37.699Z,10.99
2022-12-23T08:54:22.548Z,11.12
2022-12-23T08:57:07.291Z,10.61
2022-12-23T08:59:52.255Z,10.83
2022-12-23T09:02:37.310Z,10.99
2022-12-23T09:05:22.567Z,10.89
2022-12-23T09:08:07.540Z,10.55
2022-12-23T09:10:52.503Z,11.18
2022-12-23T09:13:37.298Z,10.87
2022-12-23T09:16:22.053Z,10.78
2022-12-23T09:19:07.104Z,11.16
2022-12-23T09:21:51.948Z,10.80
2022-12-23T09:24:36.802Z,10.91
2022-12-23T09:27:21.632Z,11.09
2022-12-23T09:30:06.432Z,11.42
2022-12-23T09:32:51.316Z,10.94
2022-12-23T09:35:36.249Z,11.31
2022-12-23T09:38:21.035Z,11.07
2022-12-23T09:41:06.051Z,10.75
2022-12-23T09:43:51.005Z,10.51
2022-12-23T09:46:36.035Z,10.63
2022-12-23T09:49:21.351Z,11.12
2022-12-23T09:52:06.236Z,10.72
2022-12-23T09:54:51.121Z,10.99
2022-12-23T09:57:36.005Z,11.10
2022-12-23T10:00:21.050Z,10.82
2022-12-23T10:03:06.003Z,10.75
2022-12-23T10:05:51.199Z,10.89
2022-12-23T10:08:36.236Z,10.99
2022-12-23T10:11:21.164Z,11.13
2022-12-23T10:14:05.948Z,11.19
2022-12-23T10:16:50.856Z,11.40
2022-12-23T10:19:35.752Z,11.42
2022-12-23T10:22:20.480Z,11.01
2022-12-23T10:25:05.363Z,11.86
2022-12-23T10:27:50.246Z,11.53
2022-12-23T10:30:57.426Z,11.26
2022-12-23T10:33:40.342Z,11.93
2022-12-23T10:36:25.323Z,11.36
2022-12-23T10:39:10.155Z,11.42
2022-12-23T10:41:55.252Z,11.58
2022-12-23T10:44:40.102Z,10.96
2022-12-23T10:47:25.249Z,11.40
2022-12-23T10:50:10.164Z,11.23
2022-12-23T10:52:55.135Z,11.82
2022-12-23T10:55:39.971Z,11.82
2022-12-23T10:58:25.025Z,11.55
2022-12-23T11:01:15.229Z,11.67
2022-12-23T11:04:06.935Z,11.69
2022-12-23T11:07:10.850Z,11.83
2022-12-23T11:09:56.907Z,11.61
2022-12-23T11:12:42.692Z,11.85
2022-12-23T11:15:27.875Z,11.78
2022-12-23T11:18:12.828Z,11.41
2022-12-23T11:20:57.580Z,11.82
2022-12-23T11:23:42.919Z,11.56
2022-12-23T11:26:28.289Z,11.58
2022-12-23T11:29:13.198Z,11.59
2022-12-23T11:31:58.292Z,11.35
2022-12-23T11:34:43.106Z,10.70
2022-12-23T11:37:28.014Z,10.41
2022-12-23T11:40:12.873Z,10.39
2022-12-23T11:42:57.664Z,9.85
2022-12-23T11:45:42.566Z,9.83
2022-12-23T11:48:27.400Z,9.93
2022-12-23T11:51:12.536Z,9.60
2022-12-23T11:53:57.417Z,9.94
2022-12-23T11:56:42.494Z,9.94
2022-12-23T11:59:27.412Z,9.86
2022-12-23T12:02:12.513Z,9.85
2022-12-23T12:04:57.335Z,9.90
2022-12-23T12:07:42.277Z,9.75
2022-12-23T12:10:27.135Z,9.82
2022-12-23T12:13:12.037Z,9.88
2022-12-23T12:15:56.984Z,10.21
2022-12-23T12:18:41.854Z,10.33
2022-12-23T12:21:27.185Z,10.37
2022-12-23T12:24:18.751Z,10.24
2022-12-23T12:27:04.092Z,9.85
2022-12-23T12:29:49.036Z,9.93
2022-12-23T12:32:33.828Z,9.62
2022-12-23T12:35:18.645Z,10.01
2022-12-23T12:38:03.443Z,10.55
2022-12-23T12:40:48.231Z,10.79
2022-12-23T12:43:33.330Z,11.14
2022-12-23T12:46:18.236Z,11.40
2022-12-23T12:49:03.665Z,10.66
2022-12-23T12:51:48.601Z,10.18
2022-12-23T12:54:33.550Z,10.76
2022-12-23T12:57:18.562Z,10.61
2022-12-23T13:00:06.509Z,10.71
2022-12-23T13:02:52.034Z,10.53
2022-12-23T13:05:37.372Z,10.48
2022-12-23T13:08:22.431Z,10.77
2022-12-23T13:11:09.652Z,10.74
2022-12-23T13:13:54.764Z,10.96
2022-12-23T13:16:39.930Z,10.93
2022-12-23T13:19:24.868Z,11.35
2022-12-23T13:22:09.777Z,11.11
2022-12-23T13:24:54.654Z,11.04
2022-12-23T13:27:39.501Z,10.81
2022-12-23T13:30:24.497Z,10.89
2022-12-23T13:33:09.258Z,10.80
2022-12-23T13:35:57.323Z,10.81
2022-12-23T13:38:46.167Z,11.29
2022-12-23T13:41:31.080Z,11.08
2022-12-23T13:44:15.987Z,10.80
2022-12-23T13:47:00.887Z,10.67
2022-12-23T13:49:45.803Z,11.11
2022-12-23T13:52:30.825Z,10.70
2022-12-23T13:55:15.734Z,11.35
2022-12-23T13:58:00.801Z,11.24
2022-12-23T14:00:45.548Z,11.62
2022-12-23T14:03:30.708Z,11.59
2022-12-23T14:06:15.822Z,11.86
2022-12-23T14:09:00.772Z,11.90
2022-12-23T14:11:45.593Z,11.39
2022-12-23T14:14:30.616Z,11.45
2022-12-23T14:17:15.672Z,11.70
2022-12-23T14:20:00.561Z,11.98
2022-12-23T14:22:45.675Z,11.80
2022-12-23T14:25:30.722Z,11.40
2022-12-23T14:28:16.080Z,11.41
2022-12-23T14:31:01.079Z,11.84
2022-12-23T14:33:46.384Z,11.74
2022-12-23T14:36:31.286Z,11.59
2022-12-23T14:39:16.231Z,11.38
2022-12-23T14:42:06.021Z,11.45
2022-12-23T14:44:52.091Z,10.96
2022-12-23T14:47:40.430Z,10.80
2022-12-23T14:50:25.689Z,10.34
2022-12-23T14:53:10.648Z,10.62
2022-12-23T14:55:55.625Z,10.16
2022-12-23T14:58:40.542Z,10.05
2022-12-23T15:01:25.515Z,10.29
2022-12-23T15:04:10.997Z,10.20
2022-12-23T15:06:55.781Z,10.31
2022-12-23T15:09:40.676Z,10.46
2022-12-23T15:12:25.413Z,10.40
2022-12-23T15:15:10.426Z,10.32
2022-12-23T15:17:55.314Z,10.23
2022-12-23T15:20:40.090Z,10.06
2022-12-23T15:23:25.152Z,10.21
2022-12-23T15:26:10.010Z,10.18
2022-12-23T15:28:54.776Z,10.63
2022-12-23T15:31:39.678Z,10.95
2022-12-23T15:34:24.709Z,10.92
2022-12-23T15:37:09.449Z,11.18
2022-12-23T15:40:04.547Z,11.18
2022-12-23T15:42:54.993Z,11.35
2022-12-23T15:45:40.037Z,11.50
2022-12-23T15:48:25.188Z,11.45
2022-12-23T15:51:10.253Z,11.69
2022-12-23T15:53:55.289Z,11.04
2022-12-23T15:56:40.051Z,10.99
2022-12-23T15:59:24.861Z,11.13
2022-12-23T16:02:40.417Z,10.97
2022-12-23T16:05:14.691Z,11.44
2022-12-23T16:07:59.727Z,10.93
2022-12-23T16:10:44.554Z,10.83
2022-12-23T16:13:29.493Z,10.78
2022-12-23T16:16:14.608Z,10.80
2022-12-23T16:18:59.905Z,11.12
2022-12-23T16:21:45.031Z,10.84
2022-12-23T16:24:30.007Z,11.12
2022-12-23T16:27:14.848Z,11.25
2022-12-23T16:29:59.784Z,11.13
2022-12-23T16:32:44.752Z,11.14
2022-12-23T16:35:29.497Z,10.65
2022-12-23T16:38:14.411Z,10.62
2022-12-23T16:40:59.302Z,11.12
2022-12-23T16:43:51.504Z,10.83
2022-12-23T16:46:37.638Z,11.29
2022-12-23T16:49:28.033Z,11.44
2022-12-23T16:52:16.363Z,11.71
2022-12-23T16:55:01.188Z,10.85
2022-12-23T16:57:46.195Z,11.38
2022-12-23T17:00:31.025Z,11.54
2022-12-23T17:03:16.652Z,10.19
2022-12-23T17:06:01.823Z,10.80
2022-12-23T17:08:46.517Z,10.98
2022-12-23T17:11:31.449Z,10.97
2022-12-23T17:14:16.200Z,11.38
2022-12-23T17:17:01.141Z,11.40
2022-12-23T17:19:45.941Z,11.37
2022-12-23T17:22:32.233Z,11.36
2022-12-23T17:25:21.266Z,11.45
2022-12-23T17:28:09.326Z,11.50
2022-12-23T17:30:54.828Z,11.09
2022-12-23T17:33:40.706Z,11.55
2022-12-23T17:36:25.566Z,11.64
2022-12-23T17:39:10.746Z,11.15
2022-12-23T17:41:56.014Z,11.01
2022-12-23T17:44:41.052Z,11.12
2022-12-23T17:47:26.500Z,10.51
2022-12-23T17:50:11.680Z,10.04
2022-12-23T17:52:57.021Z,10.05
2022-12-23T17:55:42.068Z,10.00
2022-12-23T17:58:27.068Z,9.94
2022-12-23T18:01:12.070Z,9.95
2022-12-23T18:03:56.951Z,9.81
2022-12-23T18:06:41.941Z,9.32
2022-12-23T18:09:27.253Z,9.47
2022-12-23T18:12:12.222Z,9.75
2022-12-23T18:14:57.164Z,9.80
2022-12-23T18:17:42.261Z,10.17
2022-12-23T18:20:27.168Z,10.14
2022-12-23T18:23:12.326Z,10.12
2022-12-23T18:25:57.365Z,10.34
2022-12-23T18:28:42.134Z,10.56
2022-12-23T18:31:28.013Z,10.61
2022-12-23T18:34:13.307Z,10.18
2022-12-23T18:36:58.341Z,10.12
2022-12-23T18:39:43.103Z,10.41
2022-12-23T18:42:27.994Z,10.89
2022-12-23T18:45:12.977Z,10.74
2022-12-23T18:47:57.690Z,10.68
2022-12-23T18:50:42.663Z,10.51
2022-12-23T18:53:27.550Z,10.63
2022-12-23T18:56:12.595Z,10.31
2022-12-23T18:58:57.596Z,10.75
2022-12-23T19:01:42.500Z,11.12
2022-12-23T19:04:27.312Z,11.20
2022-12-23T19:07:12.356Z,10.88
2022-12-23T19:09:57.327Z,11.28
2022-12-23T19:12:42.195Z,11.59
2022-12-23T19:15:27.265Z,11.04
2022-12-23T19:18:12.681Z,11.27
2022-12-23T19:20:57.890Z,11.48
2022-12-23T19:23:42.645Z,11.25
2022-12-23T19:26:27.588Z,11.08
2022-12-23T19:29:12.678Z,11.40
2022-12-23T19:31:58.045Z,11.28
2022-12-23T19:34:42.996Z,11.00
2022-12-23T19:37:27.888Z,10.97
2022-12-23T19:40:12.938Z,10.77
2022-12-23T19:42:57.808Z,11.09
2022-12-23T19:45:42.791Z,11.30
2022-12-23T19:48:27.520Z,11.53
2022-12-23T19:51:12.440Z,11.57
2022-12-23T19:53:57.324Z,11.54
2022-12-23T19:56:42.514Z,11.37
2022-12-23T19:59:27.988Z,11.53
2022-12-23T20:02:12.893Z,11.45
2022-12-23T20:04:58.331Z,11.59
2022-12-23T20:07:43.149Z,11.59
2022-12-23T20:10:27.990Z,11.56
2022-12-23T20:13:12.707Z,11.42
2022-12-23T20:15:57.661Z,11.21
2022-12-23T20:18:42.947Z,10.97
2022-12-23T20:21:28.651Z,11.02
2022-12-23T20:24:14.063Z,11.30
2022-12-23T20:26:58.877Z,10.79
2022-12-23T20:29:44.002Z,10.94
2022-12-23T20:32:29.423Z,10.57
2022-12-23T20:35:14.321Z,11.04
2022-12-23T20:37:59.371Z,11.13
2022-12-23T20:40:44.069Z,11.02
2022-12-23T20:43:29.151Z,11.28
2022-12-23T20:46:13.908Z,11.11
2022-12-23T20:48:58.751Z,11.33
2022-12-23T20:51:44.256Z,11.15
2022-12-23T20:54:33.321Z,11.14
2022-12-23T20:57:18.720Z,11.24
2022-12-23T21:00:03.669Z,11.32
2022-12-23T21:02:49.109Z,11.49
2022-12-23T21:05:34.408Z,11.64
2022-12-23T21:08:19.264Z,11.73
2022-12-23T21:11:04.234Z,11.49
2022-12-23T21:13:48.948Z,11.49
2022-12-23T21:16:34.240Z,11.73
2022-12-23T21:19:21.711Z,11.39
2022-12-23T21:22:06.825Z,11.38
2022-12-23T21:24:51.815Z,11.45
2022-12-23T21:27:36.834Z,11.24
2022-12-23T21:30:22.350Z,11.18
2022-12-23T21:33:07.182Z,11.12
2022-12-23T21:35:52.137Z,10.87
2022-12-23T21:38:37.030Z,11.34
2022-12-23T21:41:22.059Z,11.03
2022-12-23T21:44:06.973Z,10.54
2022-12-23T21:46:51.909Z,10.34
2022-12-23T21:49:37.152Z,11.02
2022-12-23T21:52:22.064Z,11.04
2022-12-23T21:55:06.939Z,10.54
2022-12-23T21:57:52.881Z,10.31
2022-12-23T22:00:37.789Z,10.15
2022-12-23T22:03:23.097Z,10.40
2022-12-23T22:06:10.452Z,10.33
2022-12-23T22:08:55.782Z,10.47
2022-12-23T22:11:41.113Z,10.37
2022-12-23T22:14:25.944Z,10.44
2022-12-23T22:17:10.952Z,10.37
2022-12-23T22:19:55.673Z,10.25
2022-12-23T22:22:40.686Z,10.32
2022-12-23T22:25:25.555Z,10.26
2022-12-23T22:28:10.635Z,10.46
2022-12-23T22:30:55.498Z,10.41
2022-12-23T22:33:40.735Z,10.31
2022-12-23T22:36:25.833Z,10.19
2022-12-23T22:39:16.055Z,10.49
2022-12-23T22:42:05.018Z,10.28
2022-12-23T22:44:50.012Z,10.26
2022-12-23T22:47:35.077Z,10.26
2022-12-23T22:50:20.364Z,10.37
2022-12-23T22:53:05.255Z,10.19
2022-12-23T22:55:50.838Z,10.23
2022-12-23T22:58:35.831Z,10.03
2022-12-23T23:01:20.581Z,10.26
2022-12-23T23:04:05.455Z,10.28
2022-12-23T23:06:50.413Z,10.59
2022-12-23T23:09:35.368Z,10.71
2022-12-23T23:12:20.147Z,10.63
2022-12-23T23:15:05.130Z,10.50
2022-12-23T23:17:50.095Z,10.44
2022-12-23T23:20:34.993Z,10.72
2022-12-23T23:23:19.838Z,10.63
2022-12-23T23:26:04.632Z,10.67
2022-12-23T23:28:49.846Z,10.66
2022-12-23T23:31:43.151Z,10.77
2022-12-23T23:34:29.036Z,10.57
2022-12-23T23:37:13.765Z,10.18
2022-12-23T23:39:58.691Z,10.48
2022-12-23T23:42:43.475Z,10.20
2022-12-23T23:45:28.592Z,10.06
2022-12-23T23:48:13.575Z,10.11
2022-12-23T23:50:58.511Z,10.25
2022-12-23T23:53:43.355Z,10.12
2022-12-23T23:56:33.840Z,10.40
2022-12-23T23:59:22.626Z,10.34
